createdAt,value
2017-09-14T00:00:07.604Z,22.02
2017-09-14T00:00:39.566Z,22.02
2017-09-14T00:01:11.226Z,22.03
2017-09-14T00:01:42.877Z,22.04
2017-09-14T00:02:14.522Z,22.04
2017-09-14T00:02:46.178Z,22.04
2017-09-14T00:03:17.826Z,22.05
2017-09-14T00:03:49.521Z,22.04
2017-09-14T00:04:21.175Z,22.04
2017-09-14T00:04:52.822Z,22.04
2017-09-14T00:05:24.470Z,22.03
2017-09-14T00:05:56.126Z,22.03
2017-09-14T00:06:27.826Z,22.03
2017-09-14T00:06:59.478Z,22.04
2017-09-14T00:07:31.126Z,22.05
2017-09-14T00:08:02.773Z,22.04
2017-09-14T00:08:34.418Z,22.05
2017-09-14T00:09:06.063Z,22.04
2017-09-14T00:09:37.709Z,22.03
2017-09-14T00:10:09.358Z,22.04
2017-09-14T00:10:41.013Z,22.02
2017-09-14T00:11:12.665Z,22.02
2017-09-14T00:11:44.371Z,22.03
2017-09-14T00:12:16.021Z,22.02
2017-09-14T00:12:47.674Z,22.02
2017-09-14T00:13:19.322Z,22.02
2017-09-14T00:13:50.971Z,22.02
2017-09-14T00:14:22.624Z,22.02
2017-09-14T00:14:54.277Z,22.01
2017-09-14T00:15:26.153Z,22.01
2017-09-14T00:15:57.807Z,22.03
2017-09-14T00:16:29.457Z,22.05
2017-09-14T00:17:01.150Z,22.06
2017-09-14T00:17:32.803Z,22.07
2017-09-14T00:18:04.670Z,22.08
2017-09-14T00:18:36.332Z,22.08
2017-09-14T00:19:07.981Z,22.08
2017-09-14T00:19:39.636Z,22.09
2017-09-14T00:20:11.285Z,22.09
2017-09-14T00:20:42.938Z,22.10
2017-09-14T00:21:14.641Z,22.09
2017-09-14T00:21:46.286Z,22.07
2017-09-14T00:22:17.936Z,22.08
2017-09-14T00:22:49.590Z,22.07
2017-09-14T00:23:21.242Z,22.08
2017-09-14T00:23:52.890Z,22.10
2017-09-14T00:24:24.539Z,22.10
2017-09-14T00:24:56.194Z,22.12
2017-09-14T00:25:27.965Z,22.10
2017-09-14T00:25:59.613Z,22.09
2017-09-14T00:26:31.304Z,22.10
2017-09-14T00:27:02.953Z,22.06
2017-09-14T00:27:34.799Z,22.08
2017-09-14T00:28:06.464Z,22.08
2017-09-14T00:28:38.120Z,22.07
2017-09-14T00:29:09.772Z,22.07
2017-09-14T00:29:41.714Z,22.06
2017-09-14T00:30:13.540Z,22.06
2017-09-14T00:30:45.308Z,22.05
2017-09-14T00:31:16.957Z,22.05
2017-09-14T00:31:48.606Z,22.04
2017-09-14T00:32:20.260Z,22.03
2017-09-14T00:32:51.910Z,22.03
2017-09-14T00:33:23.562Z,22.02
2017-09-14T00:33:55.213Z,22.00
2017-09-14T00:34:26.861Z,22.01
2017-09-14T00:34:58.751Z,22.01
2017-09-14T00:35:30.406Z,22.03
2017-09-14T00:36:02.063Z,22.02
2017-09-14T00:36:33.714Z,22.01
2017-09-14T00:37:05.363Z,21.99
2017-09-14T00:37:37.013Z,21.99
2017-09-14T00:38:08.817Z,21.99
2017-09-14T00:38:40.465Z,22.00
2017-09-14T00:39:12.142Z,21.99
2017-09-14T00:39:43.832Z,21.99
2017-09-14T00:40:15.533Z,21.99
2017-09-14T00:40:47.188Z,21.99
2017-09-14T00:41:18.845Z,21.99
2017-09-14T00:41:50.500Z,21.99
2017-09-14T00:42:22.156Z,21.99
2017-09-14T00:42:53.805Z,21.97
2017-09-14T00:43:25.458Z,21.99
2017-09-14T00:43:57.103Z,21.98
2017-09-14T00:44:28.749Z,21.97
2017-09-14T00:45:00.398Z,21.98
2017-09-14T00:45:32.097Z,21.97
2017-09-14T00:46:03.751Z,21.98
2017-09-14T00:46:35.405Z,21.97
2017-09-14T00:47:07.053Z,21.98
2017-09-14T00:47:38.706Z,21.97
2017-09-14T00:48:10.353Z,21.97
2017-09-14T00:48:42.006Z,21.98
2017-09-14T00:49:13.662Z,21.97
2017-09-14T00:49:45.318Z,21.97
2017-09-14T00:50:17.007Z,21.98
2017-09-14T00:50:48.662Z,21.97
2017-09-14T00:51:20.327Z,21.97
2017-09-14T00:51:51.982Z,21.96
2017-09-14T00:52:23.675Z,21.95
2017-09-14T00:52:55.325Z,21.96
2017-09-14T00:53:27.033Z,21.96
2017-09-14T00:53:58.681Z,21.95
2017-09-14T00:54:30.330Z,21.95
2017-09-14T00:55:01.986Z,21.95
2017-09-14T00:55:33.637Z,21.96
2017-09-14T00:56:05.281Z,21.96
2017-09-14T00:56:36.933Z,21.95
2017-09-14T00:57:08.581Z,21.95
2017-09-14T00:57:40.231Z,21.95
2017-09-14T00:58:11.882Z,21.96
2017-09-14T00:58:43.582Z,21.96
2017-09-14T00:59:15.229Z,21.96
2017-09-14T00:59:46.879Z,21.95
2017-09-14T01:00:18.529Z,21.95
2017-09-14T01:00:50.186Z,21.94
2017-09-14T01:01:21.840Z,21.94
2017-09-14T01:01:53.491Z,21.95
2017-09-14T01:02:25.355Z,21.95
2017-09-14T01:02:57.002Z,21.94
2017-09-14T01:03:28.653Z,21.95
2017-09-14T01:04:00.342Z,21.95
2017-09-14T01:04:32.558Z,21.96
2017-09-14T01:05:04.686Z,21.96
2017-09-14T01:05:36.995Z,21.95
2017-09-14T01:06:09.305Z,21.95
2017-09-14T01:06:40.958Z,21.94
2017-09-14T01:07:12.612Z,21.94
2017-09-14T01:07:44.264Z,21.94
2017-09-14T01:08:15.950Z,21.94
2017-09-14T01:08:47.598Z,21.94
2017-09-14T01:09:19.250Z,21.94
2017-09-14T01:09:50.900Z,21.94
2017-09-14T01:10:22.747Z,21.93
2017-09-14T01:10:54.453Z,21.93
2017-09-14T01:11:26.338Z,21.92
2017-09-14T01:11:57.987Z,21.92
2017-09-14T01:12:29.638Z,21.93
2017-09-14T01:13:01.285Z,21.92
2017-09-14T01:13:32.936Z,21.92
2017-09-14T01:14:04.587Z,21.92
2017-09-14T01:14:36.235Z,21.93
2017-09-14T01:15:07.878Z,21.92
2017-09-14T01:15:39.782Z,21.90
2017-09-14T01:16:11.494Z,21.90
2017-09-14T01:16:43.373Z,21.91
2017-09-14T01:17:15.023Z,21.91
2017-09-14T01:17:46.673Z,21.91
2017-09-14T01:18:18.319Z,21.91
2017-09-14T01:18:49.972Z,21.91
2017-09-14T01:19:22.196Z,21.91
2017-09-14T01:19:53.845Z,21.91
2017-09-14T01:20:25.493Z,21.91
2017-09-14T01:20:57.149Z,21.90
2017-09-14T01:21:28.849Z,21.90
2017-09-14T01:22:00.716Z,21.90
2017-09-14T01:22:32.365Z,21.90
2017-09-14T01:23:04.013Z,21.90
2017-09-14T01:23:35.666Z,21.90
2017-09-14T01:24:07.318Z,21.90
2017-09-14T01:24:38.974Z,21.91
2017-09-14T01:25:10.621Z,21.92
2017-09-14T01:25:42.265Z,21.91
2017-09-14T01:26:13.909Z,21.91
2017-09-14T01:26:45.559Z,21.91
2017-09-14T01:27:17.439Z,21.90
2017-09-14T01:27:49.322Z,21.90
2017-09-14T01:28:20.973Z,21.90
2017-09-14T01:28:52.630Z,21.90
2017-09-14T01:29:24.278Z,21.91
2017-09-14T01:29:55.957Z,21.89
2017-09-14T01:30:27.609Z,21.89
2017-09-14T01:30:59.261Z,21.90
2017-09-14T01:31:30.975Z,21.89
2017-09-14T01:32:02.620Z,21.89
2017-09-14T01:32:34.473Z,21.90
2017-09-14T01:33:06.121Z,21.89
2017-09-14T01:33:37.766Z,21.90
2017-09-14T01:34:09.414Z,21.89
2017-09-14T01:34:41.058Z,21.90
2017-09-14T01:35:12.706Z,21.90
2017-09-14T01:35:44.354Z,21.89
2017-09-14T01:36:16.002Z,21.89
2017-09-14T01:36:47.915Z,21.89
2017-09-14T01:37:19.606Z,21.89
2017-09-14T01:37:51.253Z,21.89
2017-09-14T01:38:22.905Z,21.88
2017-09-14T01:38:54.555Z,21.89
2017-09-14T01:39:26.434Z,21.88
2017-09-14T01:39:58.085Z,21.88
2017-09-14T01:40:29.733Z,21.88
2017-09-14T01:41:01.425Z,21.89
2017-09-14T01:41:33.077Z,21.90
2017-09-14T01:42:04.759Z,21.88
2017-09-14T01:42:36.412Z,21.89
2017-09-14T01:43:08.063Z,21.89
2017-09-14T01:43:39.710Z,21.91
2017-09-14T01:44:11.360Z,21.90
2017-09-14T01:44:43.010Z,21.90
2017-09-14T01:45:14.666Z,21.89
2017-09-14T01:45:46.443Z,21.90
2017-09-14T01:46:18.097Z,21.89
2017-09-14T01:46:49.747Z,21.90
2017-09-14T01:47:21.370Z,21.94
2017-09-14T01:47:53.030Z,21.99
2017-09-14T01:48:24.677Z,22.00
2017-09-14T01:48:56.323Z,22.01
2017-09-14T01:49:27.973Z,22.01
2017-09-14T01:49:59.617Z,22.00
2017-09-14T01:50:31.265Z,21.99
2017-09-14T01:51:02.917Z,21.99
2017-09-14T01:51:34.620Z,21.98
2017-09-14T01:52:06.269Z,21.98
2017-09-14T01:52:37.920Z,21.97
2017-09-14T01:53:09.565Z,21.97
2017-09-14T01:53:41.209Z,21.96
2017-09-14T01:54:12.857Z,21.95
2017-09-14T01:54:44.507Z,21.95
2017-09-14T01:55:16.157Z,21.97
2017-09-14T01:55:47.802Z,21.97
2017-09-14T01:56:19.587Z,21.98
2017-09-14T01:56:51.285Z,21.99
2017-09-14T01:57:23.136Z,21.98
2017-09-14T01:57:54.793Z,21.99
2017-09-14T01:58:26.447Z,22.00
2017-09-14T01:58:58.411Z,22.00
2017-09-14T01:59:30.062Z,22.01
2017-09-14T02:00:01.713Z,22.00
2017-09-14T02:00:33.367Z,22.01
2017-09-14T02:01:05.018Z,22.00
2017-09-14T02:01:36.670Z,22.00
2017-09-14T02:02:08.548Z,21.99
2017-09-14T02:02:40.249Z,21.99
2017-09-14T02:03:11.893Z,22.00
2017-09-14T02:03:43.533Z,22.00
2017-09-14T02:04:15.176Z,22.00
2017-09-14T02:04:46.838Z,21.99
2017-09-14T02:05:18.482Z,21.99
2017-09-14T02:05:50.371Z,22.00
2017-09-14T02:06:22.021Z,22.00
2017-09-14T02:06:53.665Z,21.99
2017-09-14T02:07:25.309Z,21.98
2017-09-14T02:07:56.993Z,21.98
2017-09-14T02:08:28.638Z,21.98
2017-09-14T02:09:00.298Z,21.97
2017-09-14T02:09:32.170Z,21.98
2017-09-14T02:10:03.821Z,21.97
2017-09-14T02:10:35.465Z,21.97
2017-09-14T02:11:07.114Z,21.97
2017-09-14T02:11:38.769Z,21.98
2017-09-14T02:12:10.417Z,21.98
2017-09-14T02:12:42.070Z,21.97
2017-09-14T02:13:13.775Z,21.97
2017-09-14T02:13:45.429Z,21.96
2017-09-14T02:14:17.038Z,21.97
2017-09-14T02:14:48.898Z,21.98
2017-09-14T02:15:20.554Z,21.99
2017-09-14T02:15:52.202Z,22.00
2017-09-14T02:16:23.854Z,21.99
2017-09-14T02:16:55.500Z,21.99
2017-09-14T02:17:27.145Z,21.98
2017-09-14T02:17:58.793Z,21.97
2017-09-14T02:18:30.445Z,21.97
2017-09-14T02:19:02.154Z,21.96
2017-09-14T02:19:33.797Z,21.95
2017-09-14T02:20:05.445Z,21.95
2017-09-14T02:20:37.098Z,21.95
2017-09-14T02:21:08.755Z,21.94
2017-09-14T02:21:40.410Z,21.94
2017-09-14T02:22:12.062Z,21.93
2017-09-14T02:22:43.710Z,21.94
2017-09-14T02:23:15.475Z,21.93
2017-09-14T02:23:47.130Z,21.94
2017-09-14T02:24:19.065Z,21.93
2017-09-14T02:24:50.714Z,21.94
2017-09-14T02:25:22.367Z,21.93
2017-09-14T02:25:54.016Z,21.92
2017-09-14T02:26:25.661Z,21.91
2017-09-14T02:26:57.320Z,21.91
2017-09-14T02:27:28.972Z,21.92
2017-09-14T02:28:00.624Z,21.91
2017-09-14T02:28:32.282Z,21.91
2017-09-14T02:29:03.937Z,21.92
2017-09-14T02:29:35.627Z,21.91
2017-09-14T02:30:07.282Z,21.91
2017-09-14T02:30:38.925Z,21.90
2017-09-14T02:31:10.721Z,21.90
2017-09-14T02:31:42.374Z,21.90
2017-09-14T02:32:14.017Z,21.90
2017-09-14T02:32:45.684Z,21.89
2017-09-14T02:33:17.342Z,21.89
2017-09-14T02:33:49.036Z,21.88
2017-09-14T02:34:20.692Z,21.88
2017-09-14T02:34:52.398Z,21.87
2017-09-14T02:35:24.041Z,21.87
2017-09-14T02:35:55.697Z,21.87
2017-09-14T02:36:27.351Z,21.88
2017-09-14T02:36:59.011Z,21.88
2017-09-14T02:37:30.663Z,21.87
2017-09-14T02:38:02.329Z,21.87
2017-09-14T02:38:33.994Z,21.86
2017-09-14T02:39:05.666Z,21.86
2017-09-14T02:39:37.314Z,21.85
2017-09-14T02:40:09.244Z,21.85
2017-09-14T02:40:40.893Z,21.90
2017-09-14T02:41:12.546Z,21.94
2017-09-14T02:41:44.197Z,21.98
2017-09-14T02:42:15.853Z,22.05
2017-09-14T02:42:47.504Z,21.99
2017-09-14T02:43:19.154Z,21.93
2017-09-14T02:43:50.806Z,21.87
2017-09-14T02:44:22.460Z,21.81
2017-09-14T02:44:54.123Z,21.75
2017-09-14T02:45:25.970Z,21.71
2017-09-14T02:45:57.623Z,21.68
2017-09-14T02:46:29.274Z,21.64
2017-09-14T02:47:01.204Z,21.60
2017-09-14T02:47:32.853Z,21.57
2017-09-14T02:48:04.804Z,21.54
2017-09-14T02:48:36.457Z,21.51
2017-09-14T02:49:08.107Z,21.48
2017-09-14T02:49:39.758Z,21.45
2017-09-14T02:50:11.413Z,21.42
2017-09-14T02:50:43.065Z,21.41
2017-09-14T02:51:14.743Z,21.39
2017-09-14T02:51:46.405Z,21.37
2017-09-14T02:52:18.054Z,21.36
2017-09-14T02:52:49.721Z,21.32
2017-09-14T02:53:21.380Z,21.28
2017-09-14T02:53:53.162Z,21.28
2017-09-14T02:54:24.850Z,21.36
2017-09-14T02:54:56.505Z,21.44
2017-09-14T02:55:28.395Z,21.53
2017-09-14T02:56:00.041Z,21.60
2017-09-14T02:56:31.688Z,21.64
2017-09-14T02:57:03.339Z,21.65
2017-09-14T02:57:34.991Z,21.63
2017-09-14T02:58:06.651Z,21.61
2017-09-14T02:58:38.307Z,21.60
2017-09-14T02:59:09.961Z,21.57
2017-09-14T02:59:41.666Z,21.58
2017-09-14T03:00:13.311Z,21.58
2017-09-14T03:00:44.964Z,21.57
2017-09-14T03:01:16.614Z,21.56
2017-09-14T03:01:48.258Z,21.55
2017-09-14T03:02:19.923Z,21.55
2017-09-14T03:02:51.574Z,21.55
2017-09-14T03:03:23.222Z,21.54
2017-09-14T03:03:54.872Z,21.54
2017-09-14T03:04:26.517Z,21.53
2017-09-14T03:04:58.213Z,21.53
2017-09-14T03:05:29.899Z,21.52
2017-09-14T03:06:01.549Z,21.52
2017-09-14T03:06:33.204Z,21.51
2017-09-14T03:07:04.854Z,21.52
2017-09-14T03:07:36.514Z,21.51
2017-09-14T03:08:08.174Z,21.52
2017-09-14T03:08:39.822Z,21.51
2017-09-14T03:09:11.702Z,21.51
2017-09-14T03:09:43.353Z,21.52
2017-09-14T03:10:15.014Z,21.51
2017-09-14T03:10:46.663Z,21.51
2017-09-14T03:11:18.324Z,21.51
2017-09-14T03:11:49.974Z,21.51
2017-09-14T03:12:21.630Z,21.51
2017-09-14T03:12:53.281Z,21.51
2017-09-14T03:13:25.141Z,21.51
2017-09-14T03:13:56.790Z,21.52
2017-09-14T03:14:28.437Z,21.52
2017-09-14T03:15:00.335Z,21.53
2017-09-14T03:15:32.017Z,21.53
2017-09-14T03:16:03.665Z,21.54
2017-09-14T03:16:35.311Z,21.55
2017-09-14T03:17:06.966Z,21.55
2017-09-14T03:17:38.618Z,21.54
2017-09-14T03:18:10.266Z,21.54
2017-09-14T03:18:41.913Z,21.55
2017-09-14T03:19:13.564Z,21.54
2017-09-14T03:19:45.210Z,21.54
2017-09-14T03:20:16.914Z,21.54
2017-09-14T03:20:48.561Z,21.54
2017-09-14T03:21:20.212Z,21.53
2017-09-14T03:21:51.865Z,21.53
2017-09-14T03:22:23.522Z,21.53
2017-09-14T03:22:55.170Z,21.53
2017-09-14T03:23:26.826Z,21.52
2017-09-14T03:23:58.597Z,21.53
2017-09-14T03:24:30.250Z,21.52
2017-09-14T03:25:01.893Z,21.52
2017-09-14T03:25:33.806Z,21.51
2017-09-14T03:26:05.464Z,21.51
2017-09-14T03:26:37.118Z,21.50
2017-09-14T03:27:08.765Z,21.50
2017-09-14T03:27:40.420Z,21.50
2017-09-14T03:28:12.074Z,21.50
2017-09-14T03:28:43.725Z,21.50
2017-09-14T03:29:15.378Z,21.50
2017-09-14T03:29:47.025Z,21.49
2017-09-14T03:30:18.676Z,21.48
2017-09-14T03:30:50.370Z,21.49
2017-09-14T03:31:22.026Z,21.49
2017-09-14T03:31:53.669Z,21.48
2017-09-14T03:32:25.337Z,21.48
2017-09-14T03:32:57.121Z,21.48
2017-09-14T03:33:28.773Z,21.48
2017-09-14T03:34:00.425Z,21.47
2017-09-14T03:34:32.088Z,21.47
2017-09-14T03:35:03.756Z,21.48
2017-09-14T03:35:35.601Z,21.47
2017-09-14T03:36:07.275Z,21.47
2017-09-14T03:36:38.922Z,21.47
2017-09-14T03:37:10.583Z,21.47
2017-09-14T03:37:42.226Z,21.46
2017-09-14T03:38:13.873Z,21.46
2017-09-14T03:38:45.518Z,21.46
2017-09-14T03:39:17.174Z,21.46
2017-09-14T03:39:48.821Z,21.46
2017-09-14T03:40:20.473Z,21.45
2017-09-14T03:40:52.123Z,21.45
2017-09-14T03:41:24.005Z,21.45
2017-09-14T03:41:55.662Z,21.44
2017-09-14T03:42:27.373Z,21.44
2017-09-14T03:42:59.034Z,21.43
2017-09-14T03:43:30.681Z,21.44
2017-09-14T03:44:02.334Z,21.44
2017-09-14T03:44:33.987Z,21.43
2017-09-14T03:45:05.651Z,21.43
2017-09-14T03:45:37.303Z,21.43
2017-09-14T03:46:08.968Z,21.43
2017-09-14T03:46:40.733Z,21.43
2017-09-14T03:47:12.385Z,21.42
2017-09-14T03:47:44.099Z,21.42
2017-09-14T03:48:15.965Z,21.42
2017-09-14T03:48:47.615Z,21.41
2017-09-14T03:49:19.274Z,21.41
2017-09-14T03:49:50.927Z,21.41
2017-09-14T03:50:22.581Z,21.40
2017-09-14T03:50:54.236Z,21.40
2017-09-14T03:51:25.891Z,21.40
2017-09-14T03:51:57.543Z,21.40
2017-09-14T03:52:29.199Z,21.40
2017-09-14T03:53:00.902Z,21.40
2017-09-14T03:53:32.554Z,21.39
2017-09-14T03:54:04.210Z,21.39
2017-09-14T03:54:35.974Z,21.39
2017-09-14T03:55:07.626Z,21.39
2017-09-14T03:55:39.283Z,21.39
2017-09-14T03:56:10.936Z,21.39
2017-09-14T03:56:42.585Z,21.38
2017-09-14T03:57:14.492Z,21.38
2017-09-14T03:57:46.144Z,21.38
2017-09-14T03:58:17.858Z,21.37
2017-09-14T03:58:49.724Z,21.37
2017-09-14T03:59:21.390Z,21.37
2017-09-14T03:59:53.057Z,21.37
2017-09-14T04:00:24.732Z,21.36
2017-09-14T04:00:56.598Z,21.36
2017-09-14T04:01:28.250Z,21.36
2017-09-14T04:01:59.901Z,21.37
2017-09-14T04:02:31.553Z,21.36
2017-09-14T04:03:03.210Z,21.36
2017-09-14T04:03:34.921Z,21.36
2017-09-14T04:04:06.573Z,21.35
2017-09-14T04:04:38.221Z,21.35
2017-09-14T04:05:09.832Z,21.35
2017-09-14T04:05:41.490Z,21.35
2017-09-14T04:06:13.134Z,21.34
2017-09-14T04:06:44.798Z,21.34
2017-09-14T04:07:16.473Z,21.34
2017-09-14T04:07:48.127Z,21.33
2017-09-14T04:08:19.895Z,21.34
2017-09-14T04:08:51.590Z,21.34
2017-09-14T04:09:23.241Z,21.33
2017-09-14T04:09:54.905Z,21.33
2017-09-14T04:10:26.560Z,21.32
2017-09-14T04:10:58.268Z,21.33
2017-09-14T04:11:29.993Z,21.33
2017-09-14T04:12:01.649Z,21.32
2017-09-14T04:12:33.301Z,21.32
2017-09-14T04:13:04.961Z,21.32
2017-09-14T04:13:36.616Z,21.31
2017-09-14T04:14:08.273Z,21.32
2017-09-14T04:14:39.922Z,21.32
2017-09-14T04:15:11.603Z,21.31
2017-09-14T04:15:43.407Z,21.31
2017-09-14T04:16:15.117Z,21.31
2017-09-14T04:16:46.979Z,21.31
2017-09-14T04:17:18.637Z,21.30
2017-09-14T04:17:50.295Z,21.30
2017-09-14T04:18:21.948Z,21.29
2017-09-14T04:18:53.761Z,21.30
2017-09-14T04:19:25.439Z,21.30
2017-09-14T04:19:57.088Z,21.30
2017-09-14T04:20:28.748Z,21.30
2017-09-14T04:21:00.405Z,21.29
2017-09-14T04:21:32.070Z,21.29
2017-09-14T04:22:03.736Z,21.29
2017-09-14T04:22:35.386Z,21.29
2017-09-14T04:23:07.108Z,21.28
2017-09-14T04:23:38.768Z,21.28
2017-09-14T04:24:10.419Z,21.28
2017-09-14T04:24:42.082Z,21.28
2017-09-14T04:25:13.737Z,21.28
2017-09-14T04:25:45.385Z,21.27
2017-09-14T04:26:17.037Z,21.28
2017-09-14T04:26:48.694Z,21.27
2017-09-14T04:27:20.345Z,21.27
2017-09-14T04:27:52.001Z,21.27
2017-09-14T04:28:23.732Z,21.27
2017-09-14T04:28:55.386Z,21.27
2017-09-14T04:29:27.038Z,21.27
2017-09-14T04:29:58.693Z,21.27
2017-09-14T04:30:30.349Z,21.27
2017-09-14T04:31:02.009Z,21.27
2017-09-14T04:31:33.823Z,21.27
2017-09-14T04:32:05.622Z,21.26
2017-09-14T04:32:37.282Z,21.26
2017-09-14T04:33:08.940Z,21.26
2017-09-14T04:33:40.832Z,21.26
2017-09-14T04:34:13.087Z,21.25
2017-09-14T04:34:44.761Z,21.25
2017-09-14T04:35:16.417Z,21.25
2017-09-14T04:35:48.074Z,21.25
2017-09-14T04:36:19.730Z,21.25
2017-09-14T04:36:51.386Z,21.25
2017-09-14T04:37:23.817Z,21.25
2017-09-14T04:37:55.508Z,21.24
2017-09-14T04:38:27.440Z,21.25
2017-09-14T04:38:59.147Z,21.25
2017-09-14T04:39:30.804Z,21.24
2017-09-14T04:40:02.465Z,21.24
2017-09-14T04:40:34.250Z,21.24
2017-09-14T04:41:05.921Z,21.24
2017-09-14T04:41:37.578Z,21.24
2017-09-14T04:42:09.251Z,21.24
2017-09-14T04:42:40.918Z,21.24
2017-09-14T04:43:12.571Z,21.23
2017-09-14T04:43:44.187Z,21.23
2017-09-14T04:44:16.133Z,21.23
2017-09-14T04:44:47.794Z,21.23
2017-09-14T04:45:19.495Z,21.24
2017-09-14T04:45:51.152Z,21.23
2017-09-14T04:46:22.793Z,21.19
2017-09-14T04:46:54.640Z,21.22
2017-09-14T04:47:26.361Z,21.23
2017-09-14T04:47:58.014Z,21.23
2017-09-14T04:48:29.903Z,21.22
2017-09-14T04:49:02.641Z,21.22
2017-09-14T04:49:34.449Z,21.23
2017-09-14T04:50:06.100Z,21.22
2017-09-14T04:50:37.757Z,21.22
2017-09-14T04:51:09.646Z,21.21
2017-09-14T04:51:41.298Z,21.22
2017-09-14T04:52:12.960Z,21.22
2017-09-14T04:52:44.848Z,21.22
2017-09-14T04:53:16.518Z,21.23
2017-09-14T04:53:48.183Z,21.24
2017-09-14T04:54:19.865Z,21.23
2017-09-14T04:54:51.557Z,21.23
2017-09-14T04:55:23.210Z,21.22
2017-09-14T04:55:54.862Z,21.22
2017-09-14T04:56:26.557Z,21.22
2017-09-14T04:56:58.226Z,21.23
2017-09-14T04:57:29.882Z,21.22
2017-09-14T04:58:01.530Z,21.22
2017-09-14T04:58:33.186Z,21.23
2017-09-14T04:59:04.850Z,21.22
2017-09-14T04:59:36.520Z,21.22
2017-09-14T05:00:08.173Z,21.22
2017-09-14T05:00:39.825Z,21.23
2017-09-14T05:01:11.517Z,21.22
2017-09-14T05:01:43.170Z,21.23
2017-09-14T05:02:14.923Z,21.23
2017-09-14T05:02:46.586Z,21.22
2017-09-14T05:03:18.248Z,21.22
2017-09-14T05:03:49.945Z,21.21
2017-09-14T05:04:21.599Z,21.22
2017-09-14T05:04:53.438Z,21.23
2017-09-14T05:05:25.143Z,21.22
2017-09-14T05:05:56.836Z,21.22
2017-09-14T05:06:28.580Z,21.22
2017-09-14T05:07:00.433Z,21.23
2017-09-14T05:07:32.090Z,21.22
2017-09-14T05:08:03.785Z,21.22
2017-09-14T05:08:35.673Z,21.22
2017-09-14T05:09:07.343Z,21.21
2017-09-14T05:09:39.002Z,21.22
2017-09-14T05:10:10.658Z,21.21
2017-09-14T05:10:42.312Z,21.22
2017-09-14T05:11:14.188Z,21.21
2017-09-14T05:11:45.842Z,21.21
2017-09-14T05:12:17.501Z,21.21
2017-09-14T05:12:49.160Z,21.21
2017-09-14T05:13:20.821Z,21.22
2017-09-14T05:13:52.478Z,21.21
2017-09-14T05:14:24.311Z,21.21
2017-09-14T05:14:55.984Z,21.21
2017-09-14T05:15:27.641Z,21.21
2017-09-14T05:15:59.289Z,21.21
2017-09-14T05:16:30.946Z,21.21
2017-09-14T05:17:02.601Z,21.21
2017-09-14T05:17:34.266Z,21.21
2017-09-14T05:18:05.978Z,21.20
2017-09-14T05:18:37.636Z,21.21
2017-09-14T05:19:09.302Z,21.20
2017-09-14T05:19:41.073Z,21.20
2017-09-14T05:20:12.753Z,21.21
2017-09-14T05:20:44.411Z,21.21
2017-09-14T05:21:16.063Z,21.21
2017-09-14T05:21:47.947Z,21.21
2017-09-14T05:22:19.611Z,21.20
2017-09-14T05:22:51.539Z,21.21
2017-09-14T05:23:23.263Z,21.21
2017-09-14T05:23:54.932Z,21.20
2017-09-14T05:24:26.585Z,21.21
2017-09-14T05:24:58.268Z,21.20
2017-09-14T05:25:30.055Z,21.21
2017-09-14T05:26:01.715Z,21.20
2017-09-14T05:26:33.376Z,21.20
2017-09-14T05:27:05.031Z,21.20
2017-09-14T05:27:36.708Z,21.20
2017-09-14T05:28:08.363Z,21.20
2017-09-14T05:28:40.052Z,21.19
2017-09-14T05:29:11.856Z,21.19
2017-09-14T05:29:43.510Z,21.19
2017-09-14T05:30:15.174Z,21.19
2017-09-14T05:30:46.826Z,21.19
2017-09-14T05:31:18.480Z,21.19
2017-09-14T05:31:50.166Z,21.18
2017-09-14T05:32:21.864Z,21.18
2017-09-14T05:32:53.517Z,21.18
2017-09-14T05:33:25.301Z,21.18
2017-09-14T05:33:56.969Z,21.18
2017-09-14T05:34:28.622Z,21.18
2017-09-14T05:35:00.278Z,21.17
2017-09-14T05:35:31.935Z,21.17
2017-09-14T05:36:03.591Z,21.17
2017-09-14T05:36:35.252Z,21.17
2017-09-14T05:37:06.906Z,21.17
2017-09-14T05:37:38.553Z,21.14
2017-09-14T05:38:10.210Z,21.17
2017-09-14T05:38:41.861Z,21.17
2017-09-14T05:39:13.513Z,21.16
2017-09-14T05:39:45.309Z,21.16
2017-09-14T05:40:16.962Z,21.17
2017-09-14T05:40:48.620Z,21.17
2017-09-14T05:41:20.274Z,21.17
2017-09-14T05:41:51.924Z,21.16
2017-09-14T05:42:23.573Z,21.16
2017-09-14T05:42:55.276Z,21.16
2017-09-14T05:43:26.925Z,21.16
2017-09-14T05:43:58.581Z,21.16
2017-09-14T05:44:30.238Z,21.16
2017-09-14T05:45:02.025Z,21.16
2017-09-14T05:45:33.678Z,21.15
2017-09-14T05:46:05.326Z,21.15
2017-09-14T05:46:36.989Z,21.15
2017-09-14T05:47:08.663Z,21.15
2017-09-14T05:47:40.513Z,21.15
2017-09-14T05:48:12.236Z,21.15
2017-09-14T05:48:43.896Z,21.15
2017-09-14T05:49:15.733Z,21.14
2017-09-14T05:49:47.426Z,21.14
2017-09-14T05:50:19.087Z,21.15
2017-09-14T05:50:50.977Z,21.15
2017-09-14T05:51:22.661Z,21.14
2017-09-14T05:51:54.326Z,21.15
2017-09-14T05:52:25.946Z,21.14
2017-09-14T05:52:57.609Z,21.14
2017-09-14T05:53:29.303Z,21.14
2017-09-14T05:54:01.177Z,21.14
2017-09-14T05:54:32.838Z,21.14
2017-09-14T05:55:04.494Z,21.15
2017-09-14T05:55:36.145Z,21.15
2017-09-14T05:56:07.855Z,21.15
2017-09-14T05:56:39.509Z,21.16
2017-09-14T05:57:11.175Z,21.15
2017-09-14T05:57:42.842Z,21.15
2017-09-14T05:58:14.618Z,21.15
2017-09-14T05:58:46.267Z,21.16
2017-09-14T05:59:17.925Z,21.15
2017-09-14T05:59:49.584Z,21.16
2017-09-14T06:00:21.237Z,21.15
2017-09-14T06:00:52.894Z,21.15
2017-09-14T06:01:24.610Z,21.15
2017-09-14T06:01:56.281Z,21.14
2017-09-14T06:02:28.062Z,21.14
2017-09-14T06:02:59.715Z,21.14
2017-09-14T06:03:31.365Z,21.13
2017-09-14T06:04:03.017Z,21.13
2017-09-14T06:04:34.666Z,21.13
2017-09-14T06:05:06.315Z,21.13
2017-09-14T06:05:37.970Z,21.13
2017-09-14T06:06:09.622Z,21.12
2017-09-14T06:06:41.317Z,21.12
2017-09-14T06:07:12.974Z,21.12
2017-09-14T06:07:44.623Z,21.12
2017-09-14T06:08:16.276Z,21.12
2017-09-14T06:08:47.931Z,21.12
2017-09-14T06:09:19.712Z,21.11
2017-09-14T06:09:51.595Z,21.11
2017-09-14T06:10:23.238Z,21.11
2017-09-14T06:10:54.881Z,21.11
2017-09-14T06:11:26.586Z,21.11
2017-09-14T06:11:58.306Z,21.11
2017-09-14T06:12:29.990Z,21.11
2017-09-14T06:13:01.642Z,21.11
2017-09-14T06:13:33.288Z,21.11
2017-09-14T06:14:04.937Z,21.11
2017-09-14T06:14:36.601Z,21.11
2017-09-14T06:15:08.257Z,21.10
2017-09-14T06:15:40.032Z,21.11
2017-09-14T06:16:11.685Z,21.10
2017-09-14T06:16:43.337Z,21.11
2017-09-14T06:17:14.989Z,21.11
2017-09-14T06:17:46.635Z,21.11
2017-09-14T06:18:18.287Z,21.11
2017-09-14T06:18:49.938Z,21.11
2017-09-14T06:19:21.587Z,21.11
2017-09-14T06:19:53.229Z,21.12
2017-09-14T06:20:25.114Z,21.12
2017-09-14T06:20:56.765Z,21.12
2017-09-14T06:21:28.414Z,21.12
2017-09-14T06:22:00.076Z,21.12
2017-09-14T06:22:31.785Z,21.12
2017-09-14T06:23:03.438Z,21.11
2017-09-14T06:23:35.089Z,21.11
2017-09-14T06:24:06.738Z,21.11
2017-09-14T06:24:38.390Z,21.11
2017-09-14T06:25:10.036Z,21.10
2017-09-14T06:25:41.685Z,21.10
2017-09-14T06:26:13.334Z,21.10
2017-09-14T06:26:44.981Z,21.11
2017-09-14T06:27:16.629Z,21.10
2017-09-14T06:27:48.407Z,21.10
2017-09-14T06:28:20.357Z,21.09
2017-09-14T06:28:52.008Z,21.10
2017-09-14T06:29:23.652Z,21.10
2017-09-14T06:29:55.301Z,21.10
2017-09-14T06:30:26.949Z,21.10
2017-09-14T06:30:58.589Z,21.10
2017-09-14T06:31:30.239Z,21.10
2017-09-14T06:32:01.890Z,21.10
2017-09-14T06:32:33.538Z,21.10
2017-09-14T06:33:05.428Z,21.10
2017-09-14T06:33:37.082Z,21.11
2017-09-14T06:34:08.733Z,21.11
2017-09-14T06:34:40.385Z,21.11
2017-09-14T06:35:12.029Z,21.10
2017-09-14T06:35:43.676Z,21.10
2017-09-14T06:36:15.321Z,21.10
2017-09-14T06:36:46.965Z,21.10
2017-09-14T06:37:18.884Z,21.10
2017-09-14T06:37:50.573Z,21.09
2017-09-14T06:38:22.476Z,21.10
2017-09-14T06:38:54.126Z,21.09
2017-09-14T06:39:25.773Z,21.09
2017-09-14T06:39:57.633Z,21.09
2017-09-14T06:40:29.349Z,21.08
2017-09-14T06:41:01.299Z,21.09
2017-09-14T06:41:32.962Z,21.09
2017-09-14T06:42:04.606Z,21.09
2017-09-14T06:42:36.256Z,21.08
2017-09-14T06:43:07.913Z,21.09
2017-09-14T06:43:39.746Z,21.09
2017-09-14T06:44:11.389Z,21.09
2017-09-14T06:44:43.098Z,21.09
2017-09-14T06:45:14.776Z,21.08
2017-09-14T06:45:46.429Z,21.08
2017-09-14T06:46:18.078Z,21.09
2017-09-14T06:46:49.721Z,21.09
2017-09-14T06:47:21.369Z,21.08
2017-09-14T06:47:53.257Z,21.08